Time;durP1;ratioP1;P1;durP2;ratioP2;P2;SDS_P1;SDS_P2;PMS_P1;PMS_P2;Temp;Humidity;BMP_temperature;BMP_pressure;BME280_temperature;BME280_humidity;BME280_pressure;Samples;Min_cycle;Max_cycle;Signal;HPM_P1;HPM_P2
2022/02/01 00:01:27;;;;;;;6.95;1.33;;;;;;;3.81;90.93;98865.41;5073825;28;20025;-67
2022/02/01 00:03:58;;;;;;;7.93;1.27;;;;;;;3.74;90.58;98873.97;5070119;28;20079;-67
2022/02/01 00:09:33;;;;;;;15.40;2.35;;;;;;;3.74;90.76;98887.00;5062340;28;20028;-67
2022/02/01 00:17:18;;;;;;;17.83;2.00;;;;;;;3.87;90.73;98886.31;5064046;28;20029;-67
2022/02/01 00:34:01;;;;;;;26.98;3.17;;;;;;;3.98;89.94;98918.53;5063538;28;20028;-67
2022/02/01 00:38:26;;;;;;;6.30;1.35;;;;;;;4.09;89.25;98929.06;5083576;28;20096;-67
2022/02/01 00:40:55;;;;;;;14.52;2.15;;;;;;;4.04;89.16;98936.81;5065870;28;20088;-67
2022/02/01 00:43:21;;;;;;;9.68;1.95;;;;;;;4.09;88.81;98940.34;5063352;28;20043;-67
2022/02/01 00:45:47;;;;;;;9.32;2.05;;;;;;;4.01;88.87;98925.50;5063396;28;20316;-67
2022/02/01 00:48:12;;;;;;;21.60;2.95;;;;;;;4.03;89.17;98919.47;5071246;28;20036;-67
2022/02/01 00:50:38;;;;;;;18.98;2.28;;;;;;;4.02;89.09;98922.06;5068828;28;20209;-67
2022/02/01 00:53:04;;;;;;;18.27;1.98;;;;;;;3.94;89.56;98924.56;5063339;28;20020;-67
2022/02/01 00:55:29;;;;;;;9.63;1.75;;;;;;;3.96;89.48;98928.03;5083303;28;20020;-67
2022/02/01 00:57:55;;;;;;;10.35;2.55;;;;;;;3.94;89.48;98921.97;5083364;28;20292;-67
2022/02/01 01:00:20;;;;;;;14.95;1.95;;;;;;;3.87;89.44;98922.75;5073377;28;20304;-67
2022/02/01 01:02:46;;;;;;;27.15;3.15;;;;;;;3.94;89.86;98934.97;5063259;28;20332;-67
2022/02/01 01:05:11;;;;;;;12.57;1.60;;;;;;;3.96;90.32;98928.03;5063230;28;20024;-67
2022/02/01 01:07:37;;;;;;;18.35;2.35;;;;;;;3.92;90.23;98921.06;5063179;28;20051;-67
2022/02/01 01:10:07;;;;;;;7.63;1.27;;;;;;;3.94;90.22;98919.34;5072908;28;20017;-67
2022/02/01 01:12:38;;;;;;;11.48;2.88;;;;;;;3.99;90.13;98922.03;5086871;28;20332;-67
2022/02/01 01:17:54;;;;;;;7.43;1.92;;;;;;;3.99;89.66;98922.88;5086781;28;20021;-67
2022/02/01 01:54:26;;;;;;;11.50;1.95;;;;;;;3.60;90.05;99008.28;5079963;28;20028;-67
2022/02/01 01:56:55;;;;;;;22.45;3.15;;;;;;;3.62;89.79;99008.31;5085731;28;20020;-67
2022/02/01 01:59:22;;;;;;;9.13;1.48;;;;;;;3.60;89.18;99010.91;5085921;28;20130;-67
2022/02/01 02:01:47;;;;;;;14.82;3.03;;;;;;;3.45;89.56;99015.88;5072796;28;20029;-67
2022/02/01 02:04:13;;;;;;;21.65;2.33;;;;;;;3.40;88.85;99012.34;5065878;28;20084;-67
2022/02/01 02:06:39;;;;;;;21.05;2.20;;;;;;;3.39;89.63;99009.72;5066928;28;20071;-67
2022/02/01 02:09:08;;;;;;;14.43;3.35;;;;;;;3.36;89.30;99009.69;5065731;28;20029;-67
2022/02/01 02:14:24;;;;;;;14.40;2.27;;;;;;;3.33;89.38;99035.63;5065609;28;20112;-67
2022/02/01 02:16:51;;;;;;;12.65;1.65;;;;;;;3.35;89.14;99029.59;5078553;28;20425;-67
2022/02/01 02:19:17;;;;;;;9.68;2.17;;;;;;;3.34;88.82;99001.84;5085240;28;20027;-67
2022/02/01 02:21:51;;;;;;;20.50;1.92;;;;;;;3.34;89.35;99033.06;5084852;28;20316;-67
2022/02/01 02:24:18;;;;;;;11.05;2.40;;;;;;;3.30;89.41;99038.19;5085449;28;20050;-67
2022/02/01 02:26:45;;;;;;;13.38;2.17;;;;;;;3.30;89.07;99046.88;5085092;28;20051;-67
2022/02/01 02:29:10;;;;;;;10.65;1.73;;;;;;;3.31;89.35;99058.16;5085350;28;20063;-67
2022/02/01 02:31:39;;;;;;;11.15;1.77;;;;;;;3.29;89.37;99059.88;5067578;28;20205;-67
2022/02/01 02:34:09;;;;;;;11.52;1.85;;;;;;;3.23;89.45;99070.16;5065220;28;20032;-67
2022/02/01 02:36:41;;;;;;;13.02;2.08;;;;;;;3.28;88.63;99074.59;5065499;28;20055;-67
2022/02/01 02:40:04;;;;;;;13.13;2.60;;;;;;;3.27;88.94;99066.75;5084938;28;20024;-67
2022/02/01 02:47:27;;;;;;;8.05;2.45;;;;;;;3.24;89.61;99052.00;5091914;28;20426;-67
2022/02/01 02:49:53;;;;;;;16.73;2.00;;;;;;;3.26;89.41;99049.41;5084981;28;20083;-67
2022/02/01 02:52:19;;;;;;;10.73;1.75;;;;;;;3.27;89.44;99062.44;5076968;28;20028;-67
2022/02/01 02:54:45;;;;;;;6.93;1.65;;;;;;;3.29;88.67;99055.50;5064832;28;20067;-67
2022/02/01 02:57:10;;;;;;;13.85;1.70;;;;;;;3.30;89.49;99072.00;5064843;28;20021;-67
2022/02/01 02:59:37;;;;;;;11.57;2.30;;;;;;;3.27;89.05;99078.06;5064682;28;20025;-67
2022/02/01 03:02:04;;;;;;;23.88;2.58;;;;;;;3.31;88.71;99064.22;5064727;28;20032;-67
2022/02/01 03:04:31;;;;;;;13.25;2.08;;;;;;;3.25;88.98;99063.25;5064680;28;20079;-67
2022/02/01 03:06:58;;;;;;;17.77;2.72;;;;;;;3.28;89.32;99048.56;5064631;28;20025;-67
2022/02/01 03:09:25;;;;;;;6.88;2.08;;;;;;;3.31;89.44;99066.84;5064598;28;20021;-67
2022/02/01 03:11:53;;;;;;;16.10;1.83;;;;;;;3.28;89.72;99079.78;5064484;28;20017;-67
2022/02/01 03:21:59;;;;;;;19.92;3.03;;;;;;;3.32;90.34;99084.19;5083720;28;20027;-67
2022/02/01 03:24:25;;;;;;;20.50;2.13;;;;;;;3.37;90.44;99069.53;5083693;28;20028;-67
2022/02/01 03:26:50;;;;;;;6.82;1.42;;;;;;;3.31;90.60;99071.16;5065393;28;20025;-67
2022/02/01 03:29:16;;;;;;;18.15;2.67;;;;;;;3.26;90.88;99070.22;5064245;28;20024;-67
2022/02/01 03:31:42;;;;;;;9.25;1.35;;;;;;;3.23;91.24;99081.44;5065314;28;20025;-67
2022/02/01 03:34:07;;;;;;;13.57;1.92;;;;;;;3.13;91.94;99089.06;5064003;28;20025;-67
2022/02/01 03:36:33;;;;;;;16.02;1.48;;;;;;;3.13;92.93;99095.13;5064318;28;20212;-67
2022/02/01 03:39:00;;;;;;;16.13;2.38;;;;;;;3.08;92.88;99107.19;5064109;28;20029;-67
2022/02/01 03:41:25;;;;;;;13.02;2.05;;;;;;;3.04;93.52;99104.50;5064221;28;20092;-67
2022/02/01 03:43:50;;;;;;;12.30;2.30;;;;;;;3.06;93.53;99093.28;5064811;28;20048;-67
2022/02/01 03:46:16;;;;;;;27.70;2.03;;;;;;;3.08;94.68;99085.50;5064038;28;20020;-67
2022/02/01 03:48:42;;;;;;;10.32;1.90;;;;;;;2.95;94.06;99094.84;5063978;28;20053;-67
2022/02/01 03:51:08;;;;;;;6.35;1.75;;;;;;;2.82;94.71;99103.25;5078606;28;20024;-67
2022/02/01 03:53:34;;;;;;;9.85;1.65;;;;;;;2.72;94.87;99108.25;5084020;28;20028;-67
2022/02/01 03:56:00;;;;;;;5.05;1.42;;;;;;;2.66;94.23;99105.53;5083967;28;20051;-67
2022/02/01 03:58:25;;;;;;;3.90;0.80;;;;;;;2.64;94.72;99108.09;5083868;28;20087;-67
2022/02/01 04:00:51;;;;;;;11.00;1.88;;;;;;;2.55;95.01;99096.63;5081702;28;20028;-67
2022/02/01 04:03:16;;;;;;;5.25;0.70;;;;;;;2.45;95.21;99089.53;5082515;28;20315;-67
2022/02/01 04:05:42;;;;;;;5.03;0.80;;;;;;;2.47;95.18;99088.72;5083933;28;20032;-67
2022/02/01 04:08:07;;;;;;;7.38;1.55;;;;;;;2.44;95.31;99119.84;5078350;28;20146;-67
2022/02/01 04:10:32;;;;;;;4.05;1.27;;;;;;;2.38;94.65;99122.31;5082646;28;20020;-67
2022/02/01 04:12:58;;;;;;;8.77;0.85;;;;;;;2.43;94.11;99138.00;5083395;28;20226;-67
2022/02/01 04:15:26;;;;;;;11.48;0.75;;;;;;;2.49;94.54;99144.16;5070546;28;20025;-67
2022/02/01 04:17:53;;;;;;;7.10;0.73;;;;;;;2.49;94.37;99138.97;5063973;28;20021;-67
2022/02/01 04:20:19;;;;;;;11.52;1.80;;;;;;;2.53;94.27;99140.78;5063677;28;20259;-67
2022/02/01 04:22:45;;;;;;;2.95;1.05;;;;;;;2.51;94.35;99132.09;5063612;28;20029;-67
2022/02/01 04:25:10;;;;;;;9.05;1.38;;;;;;;2.52;94.49;99123.44;5073228;28;20036;-67
2022/02/01 04:27:37;;;;;;;9.05;0.80;;;;;;;2.53;94.98;99132.97;5083441;28;20205;-68
2022/02/01 04:30:08;;;;;;;1.35;0.38;;;;;;;2.50;95.60;99125.13;5083395;28;20055;-69
2022/02/01 04:32:43;;;;;;;5.15;0.90;;;;;;;2.50;96.07;99121.69;5077246;28;20017;-69
2022/02/01 04:35:11;;;;;;;1.73;1.45;;;;;;;2.50;96.15;99119.94;5074051;28;20056;-69
2022/02/01 04:37:37;;;;;;;5.78;1.25;;;;;;;2.49;96.29;99138.97;5068535;28;20024;-69
2022/02/01 04:40:04;;;;;;;4.47;1.17;;;;;;;2.46;96.34;99133.72;5063619;28;20025;-69
2022/02/01 04:42:34;;;;;;;5.97;1.55;;;;;;;2.45;96.74;99121.59;5067496;28;20111;-69
2022/02/01 04:44:59;;;;;;;7.63;1.73;;;;;;;2.48;96.60;99137.22;5068443;28;20037;-69
2022/02/01 04:47:30;;;;;;;2.35;0.75;;;;;;;2.51;96.81;99134.69;5066585;28;20021;-69
2022/02/01 04:49:56;;;;;;;5.78;1.65;;;;;;;2.47;97.19;99125.09;5065882;28;20028;-69
2022/02/01 04:52:21;;;;;;;15.95;2.28;;;;;;;2.48;97.24;99125.94;5066277;28;20029;-69
2022/02/01 04:54:47;;;;;;;6.78;1.50;;;;;;;2.50;96.59;99130.31;5066503;28;20194;-69
2022/02/01 04:57:12;;;;;;;7.38;1.38;;;;;;;2.53;96.75;99135.59;5066181;28;20025;-69
2022/02/01 04:59:38;;;;;;;15.13;1.90;;;;;;;2.54;96.26;99129.56;5067109;28;20024;-69
2022/02/01 05:02:03;;;;;;;5.63;1.08;;;;;;;2.53;96.44;99140.78;5068272;28;20251;-69
2022/02/01 05:04:29;;;;;;;6.75;1.70;;;;;;;2.58;96.20;99149.56;5081665;28;20021;-69
2022/02/01 05:06:55;;;;;;;12.75;3.17;;;;;;;2.64;96.14;99141.88;5074864;28;20059;-67
2022/02/01 05:09:23;;;;;;;13.38;2.17;;;;;;;2.65;95.74;99141.03;5082209;28;20052;-68
2022/02/01 05:11:50;;;;;;;14.85;2.85;;;;;;;2.66;95.58;99126.31;5086825;28;20020;-68
2022/02/01 05:14:23;;;;;;;6.65;1.77;;;;;;;2.74;94.72;99130.81;5086605;28;20048;-68
2022/02/01 05:22:03;;;;;;;11.73;2.42;;;;;;;2.65;94.86;99128.03;5086731;28;20336;-68
2022/02/01 05:24:30;;;;;;;8.18;1.52;;;;;;;2.69;95.28;99135.03;5086574;28;20020;-68
2022/02/01 05:26:57;;;;;;;5.57;2.08;;;;;;;2.64;94.70;99139.28;5086616;28;20084;-68
2022/02/01 05:29:23;;;;;;;15.15;2.13;;;;;;;2.60;95.02;99142.69;5086501;28;20016;-68
2022/02/01 05:31:51;;;;;;;17.33;2.70;;;;;;;2.63;94.96;99140.16;5086775;28;20043;-68
2022/02/01 05:34:17;;;;;;;17.15;2.60;;;;;;;2.65;95.02;99133.22;5086458;28;20320;-68
2022/02/01 05:36:42;;;;;;;23.63;2.92;;;;;;;2.64;94.94;99121.09;5086441;28;20055;-68
2022/02/01 05:39:19;;;;;;;11.90;1.83;;;;;;;2.69;93.93;99122.03;5086393;28;20149;-68
2022/02/01 05:41:45;;;;;;;7.95;1.70;;;;;;;2.69;93.63;99122.03;5086431;28;20093;-68
2022/02/01 05:44:11;;;;;;;14.50;2.15;;;;;;;2.79;92.87;99123.13;5086560;28;20021;-68
2022/02/01 05:46:37;;;;;;;8.45;2.20;;;;;;;2.76;93.51;99113.53;5086490;28;20017;-68
2022/02/01 05:49:04;;;;;;;10.35;2.97;;;;;;;2.79;93.01;99117.91;5086204;28;20251;-68
2022/02/01 05:51:29;;;;;;;8.98;1.50;;;;;;;2.77;93.28;99115.28;5086143;28;20024;-68
2022/02/01 05:53:55;;;;;;;4.03;1.70;;;;;;;2.78;92.80;99130.03;5086122;28;20020;-68
2022/02/01 05:56:20;;;;;;;8.77;1.52;;;;;;;2.80;92.78;99136.13;5086048;28;20235;-68
2022/02/01 05:58:45;;;;;;;8.45;1.55;;;;;;;2.79;93.50;99133.50;5086078;28;20028;-68
2022/02/01 06:01:11;;;;;;;5.00;1.73;;;;;;;2.79;92.67;99134.41;5085898;28;20048;-68
2022/02/01 06:03:36;;;;;;;3.90;1.20;;;;;;;2.76;92.75;99129.13;5085925;28;20033;-68
2022/02/01 06:06:02;;;;;;;14.77;1.83;;;;;;;2.79;92.52;99159.50;5085862;28;20031;-68
2022/02/01 06:08:28;;;;;;;13.27;2.33;;;;;;;2.79;92.28;99160.38;5086096;28;20320;-68
2022/02/01 06:10:54;;;;;;;9.90;2.47;;;;;;;2.74;92.85;99156.81;5085802;28;20027;-68
2022/02/01 06:13:19;;;;;;;6.32;1.15;;;;;;;2.76;92.80;99165.53;5085546;28;20217;-68
2022/02/01 06:15:45;;;;;;;12.82;2.15;;;;;;;2.70;92.75;99155.00;5085941;28;20032;-68
2022/02/01 06:18:10;;;;;;;16.55;2.00;;;;;;;2.76;93.00;99138.66;5085652;28;20084;-68
2022/02/01 06:20:36;;;;;;;10.90;1.77;;;;;;;2.73;92.89;99160.25;5085793;28;20092;-68
2022/02/01 06:23:01;;;;;;;18.17;2.35;;;;;;;2.81;93.07;99157.81;5085553;28;20028;-68
2022/02/01 06:28:12;;;;;;;16.88;2.30;;;;;;;2.86;92.63;99177.84;5085509;28;20366;-68
2022/02/01 06:30:37;;;;;;;11.18;2.00;;;;;;;2.81;93.22;99179.47;5085648;28;20013;-68
2022/02/01 06:33:03;;;;;;;14.85;1.75;;;;;;;2.75;93.27;99174.16;5085346;28;20419;-68
2022/02/01 06:35:29;;;;;;;9.35;2.03;;;;;;;2.84;93.12;99178.66;5085306;28;20220;-68
2022/02/01 06:37:55;;;;;;;12.73;1.17;;;;;;;2.86;93.60;99176.97;5085188;28;20021;-68
2022/02/01 06:40:20;;;;;;;18.55;2.55;;;;;;;2.91;93.02;99181.41;5085135;28;20091;-68
2022/02/01 06:42:46;;;;;;;22.23;2.35;;;;;;;2.87;93.18;99195.19;5085146;28;20212;-68
2022/02/01 06:45:12;;;;;;;10.48;2.03;;;;;;;2.84;93.33;99191.63;5085205;28;20028;-68
2022/02/01 06:47:37;;;;;;;3.50;1.38;;;;;;;2.92;92.90;99192.69;5085027;28;20020;-68
2022/02/01 06:50:04;;;;;;;7.18;1.77;;;;;;;2.86;93.77;99196.03;5085017;28;20042;-68
2022/02/01 06:52:31;;;;;;;9.48;2.22;;;;;;;2.91;93.37;99207.38;5084934;28;20315;-68
2022/02/01 06:55:01;;;;;;;14.43;2.17;;;;;;;2.90;93.12;99182.25;5084889;28;20030;-68
2022/02/01 06:57:26;;;;;;;9.85;3.42;;;;;;;2.81;93.04;99178.63;5085120;28;20020;-68
2022/02/01 06:59:51;;;;;;;12.57;1.95;;;;;;;2.90;93.26;99171.84;5084696;28;20020;-68
2022/02/01 07:02:18;;;;;;;9.07;2.40;;;;;;;2.90;93.15;99169.25;5084774;28;20020;-68
2022/02/01 07:04:43;;;;;;;11.30;2.30;;;;;;;2.82;93.29;99176.03;5084790;28;20084;-68
2022/02/01 07:07:08;;;;;;;17.40;2.05;;;;;;;2.82;93.12;99181.25;5084635;28;20028;-68
2022/02/01 07:09:35;;;;;;;4.93;1.92;;;;;;;2.82;93.63;99170.84;5084224;28;20314;-68
2022/02/01 07:12:01;;;;;;;9.80;2.88;;;;;;;2.85;93.64;99176.06;5084578;28;20036;-68
2022/02/01 07:14:26;;;;;;;11.63;2.65;;;;;;;2.82;93.80;99176.03;5084412;28;20047;-68
2022/02/01 07:16:52;;;;;;;10.20;2.58;;;;;;;2.82;93.85;99165.66;5084487;28;20065;-68
2022/02/01 07:19:17;;;;;;;11.85;2.75;;;;;;;2.85;93.17;99155.28;5084451;28;20377;-68
2022/02/01 07:21:43;;;;;;;14.45;2.85;;;;;;;2.82;93.31;99163.06;5084365;28;20044;-68
2022/02/01 07:24:15;;;;;;;17.05;2.88;;;;;;;2.89;93.55;99161.44;5084305;28;20369;-68
2022/02/01 07:26:42;;;;;;;9.38;2.72;;;;;;;2.92;92.78;99156.28;5084383;28;20093;-68
2022/02/01 07:29:08;;;;;;;4.55;1.50;;;;;;;2.88;92.63;99154.47;5084272;28;20028;-68
2022/02/01 07:31:33;;;;;;;9.23;2.08;;;;;;;2.89;93.59;99141.50;5084282;28;20079;-68
2022/02/01 07:33:59;;;;;;;10.98;2.25;;;;;;;2.92;93.13;99153.69;5084230;28;20044;-68
2022/02/01 07:36:24;;;;;;;7.18;1.92;;;;;;;2.92;92.89;99149.38;5084226;28;20126;-68
2022/02/01 07:38:50;;;;;;;13.38;1.15;;;;;;;2.91;93.52;99157.16;5084190;28;20032;-68
2022/02/01 07:41:15;;;;;;;12.40;2.47;;;;;;;2.98;93.06;99154.69;5084068;28;20030;-68
2022/02/01 07:43:40;;;;;;;9.25;2.75;;;;;;;2.97;92.73;99159.88;5084262;28;20035;-68
2022/02/01 07:46:09;;;;;;;19.33;2.15;;;;;;;2.93;92.43;99160.63;5084361;28;20348;-68
2022/02/01 07:48:35;;;;;;;5.65;1.45;;;;;;;2.92;93.33;99157.16;5084315;28;20078;-68
2022/02/01 07:51:01;;;;;;;8.00;2.35;;;;;;;3.00;92.71;99139.97;5084032;28;20025;-68
2022/02/01 07:53:26;;;;;;;7.72;1.45;;;;;;;3.00;92.21;99145.16;5083859;28;20051;-68
2022/02/01 07:55:52;;;;;;;7.72;1.30;;;;;;;2.95;92.49;99145.94;5083946;28;20027;-68
2022/02/01 07:58:17;;;;;;;9.13;1.88;;;;;;;2.99;92.07;99143.44;5083997;28;20043;-68
2022/02/01 08:00:43;;;;;;;16.15;2.92;;;;;;;3.01;92.23;99135.66;5083879;28;20036;-68
2022/02/01 08:03:11;;;;;;;11.50;1.85;;;;;;;3.04;91.74;99136.56;5083910;28;20090;-68
2022/02/01 08:05:36;;;;;;;8.10;2.10;;;;;;;3.02;91.77;99121.81;5084128;28;20021;-68
2022/02/01 08:08:02;;;;;;;17.73;2.28;;;;;;;2.98;92.21;99136.50;5083843;28;20028;-68
2022/02/01 08:10:37;;;;;;;16.30;2.50;;;;;;;2.93;91.99;99143.31;5084103;28;20052;-68
2022/02/01 08:21:23;;;;;;;4.57;1.45;;;;;;;2.97;91.00;99144.25;5086617;28;20227;-68
2022/02/01 08:23:49;;;;;;;10.20;1.85;;;;;;;3.04;90.52;99149.56;5087840;28;20024;-68
2022/02/01 08:26:15;;;;;;;7.50;2.33;;;;;;;3.17;90.49;99140.28;5088018;28;20020;-68
2022/02/01 08:28:40;;;;;;;5.32;2.03;;;;;;;3.19;90.82;99142.06;5087771;28;20218;-68
2022/02/01 08:31:08;;;;;;;8.70;1.67;;;;;;;3.28;90.49;99137.03;5087688;28;20016;-68
2022/02/01 08:33:33;;;;;;;13.70;1.38;;;;;;;3.34;89.98;99136.25;5087646;28;20314;-68
2022/02/01 08:35:59;;;;;;;8.32;1.75;;;;;;;3.38;89.34;99125.91;5087605;28;20024;-68
2022/02/01 08:38:24;;;;;;;9.48;1.65;;;;;;;3.38;89.20;99125.91;5087552;28;20024;-68
2022/02/01 08:40:49;;;;;;;8.68;1.55;;;;;;;3.42;89.76;99125.09;5087420;28;20020;-68
2022/02/01 08:43:17;;;;;;;8.10;1.77;;;;;;;3.38;89.39;99118.09;5087487;28;20021;-68
2022/02/01 08:45:43;;;;;;;4.55;1.48;;;;;;;3.35;88.48;99128.47;5087402;28;20020;-68
2022/02/01 08:48:08;;;;;;;4.35;1.02;;;;;;;3.31;88.29;99136.19;5087618;28;20363;-68
2022/02/01 08:50:36;;;;;;;7.53;1.92;;;;;;;3.16;88.50;99136.81;5087305;28;20058;-68
2022/02/01 08:53:15;;;;;;;4.35;1.65;;;;;;;3.29;88.65;99138.75;5087490;28;20066;-68
2022/02/01 08:58:19;;;;;;;10.45;2.00;;;;;;;3.47;87.68;99123.47;5087158;28;20024;-68
2022/02/01 09:00:45;;;;;;;12.30;2.20;;;;;;;3.50;87.80;99133.03;5087038;28;20028;-68
2022/02/01 09:03:12;;;;;;;11.40;1.70;;;;;;;3.51;87.62;99137.41;5087061;28;20339;-68
2022/02/01 09:05:40;;;;;;;6.70;1.50;;;;;;;3.52;87.93;99145.25;5087273;28;20030;-68
2022/02/01 09:08:05;;;;;;;12.07;2.15;;;;;;;3.50;88.38;99139.13;5087007;28;20024;-68
2022/02/01 09:10:31;;;;;;;13.40;1.80;;;;;;;3.62;87.48;99134.13;5086937;28;20024;-68
2022/02/01 09:12:59;;;;;;;11.85;2.00;;;;;;;3.59;86.95;99123.66;5086331;28;20263;-68
2022/02/01 09:15:26;;;;;;;10.98;2.05;;;;;;;3.66;88.36;99122.91;5085649;28;20024;-68
2022/02/01 09:17:53;;;;;;;15.13;2.90;;;;;;;3.75;87.52;99120.44;5085880;28;20028;-68
2022/02/01 09:20:19;;;;;;;8.35;1.17;;;;;;;3.83;87.89;99123.16;5085761;28;20020;-68
2022/02/01 09:22:45;;;;;;;6.70;1.65;;;;;;;3.88;87.67;99122.38;5085560;28;20320;-68
2022/02/01 09:25:10;;;;;;;8.30;1.60;;;;;;;3.97;87.20;99112.09;5085451;28;20027;-68
2022/02/01 09:27:36;;;;;;;10.02;2.35;;;;;;;4.04;87.67;99133.88;5085488;28;20024;-68
2022/02/01 09:30:03;;;;;;;7.93;1.42;;;;;;;4.14;87.30;99123.63;5085426;28;20012;-68
2022/02/01 09:32:29;;;;;;;15.18;2.45;;;;;;;4.20;87.02;99115.88;5085013;28;20346;-68
2022/02/01 09:34:54;;;;;;;8.80;2.13;;;;;;;4.15;86.16;99112.31;5085356;28;20087;-68
2022/02/01 09:37:21;;;;;;;7.50;1.98;;;;;;;4.29;86.18;99115.13;5085334;28;20067;-68
2022/02/01 09:39:47;;;;;;;11.80;2.20;;;;;;;4.26;86.14;99121.19;5085190;28;20122;-68
2022/02/01 09:42:12;;;;;;;11.35;1.67;;;;;;;4.35;85.82;99116.09;5085264;28;20092;-68
2022/02/01 09:44:38;;;;;;;9.23;1.83;;;;;;;4.37;86.11;99124.78;5085217;28;20032;-68
2022/02/01 09:47:03;;;;;;;9.02;1.77;;;;;;;4.38;86.30;99121.34;5085430;28;20027;-68
2022/02/01 09:49:29;;;;;;;6.55;1.35;;;;;;;4.31;86.38;99124.69;5085100;28;20016;-68
2022/02/01 09:51:58;;;;;;;15.75;2.83;;;;;;;4.28;86.26;99121.19;5085071;28;20276;-68
2022/02/01 09:54:29;;;;;;;5.38;1.58;;;;;;;4.30;86.30;99133.38;5085066;28;20024;-68
2022/02/01 09:56:57;;;;;;;11.63;1.88;;;;;;;4.27;87.26;99127.25;5085121;28;20024;-68
2022/02/01 09:59:34;;;;;;;8.32;1.98;;;;;;;4.18;88.09;99125.41;5084957;28;20031;-68
2022/02/01 10:02:12;;;;;;;6.50;1.58;;;;;;;4.14;87.78;99130.53;5084973;28;20332;-68
2022/02/01 10:04:38;;;;;;;7.60;1.70;;;;;;;4.04;88.51;99132.16;5084914;28;20024;-68
2022/02/01 10:07:09;;;;;;;4.57;1.67;;;;;;;4.07;88.77;99128.72;5084824;28;20020;-68
2022/02/01 10:09:49;;;;;;;10.77;2.28;;;;;;;4.07;88.80;99129.59;5085086;28;20359;-68
2022/02/01 10:12:16;;;;;;;10.27;2.33;;;;;;;3.99;89.10;99123.38;5038767;28;1309663;-68
2022/02/01 10:14:51;;;;;;;9.60;1.75;;;;;;;3.96;89.52;99115.53;5085823;28;20030;-68
2022/02/01 10:17:25;;;;;;;9.30;1.83;;;;;;;3.89;90.77;99116.31;5085995;28;20087;-68
2022/02/01 10:19:50;;;;;;;15.80;2.28;;;;;;;3.92;90.71;99112.84;5085689;28;20251;-68
2022/02/01 10:22:15;;;;;;;9.23;2.30;;;;;;;3.80;90.69;99113.56;5085685;28;20027;-68
2022/02/01 10:24:42;;;;;;;21.08;2.22;;;;;;;3.70;92.71;99111.69;5085782;28;20391;-68
2022/02/01 10:27:18;;;;;;;13.82;1.88;;;;;;;3.70;93.13;99127.28;5085520;28;20065;-68
2022/02/01 10:30:20;;;;;;;11.18;2.13;;;;;;;3.57;93.57;99114.94;5085419;28;20070;-68
2022/02/01 10:33:11;;;;;;;8.23;2.63;;;;;;;3.57;94.95;99098.44;5085282;28;20340;-68
2022/02/01 10:35:58;;;;;;;10.52;2.13;;;;;;;3.58;94.99;99087.22;5085259;28;20234;-68
2022/02/01 10:38:23;;;;;;;19.20;2.70;;;;;;;3.51;95.76;99088.81;5085117;28;20040;-68
2022/02/01 10:40:51;;;;;;;21.73;2.35;;;;;;;3.47;96.30;99074.03;5085129;28;20020;-68
2022/02/01 10:43:28;;;;;;;17.63;2.72;;;;;;;3.52;95.97;99054.16;5084450;28;20030;-68
2022/02/01 10:46:00;;;;;;;24.48;3.50;;;;;;;3.24;96.67;99058.91;5085139;28;20028;-68
2022/02/01 10:48:27;;;;;;;6.82;2.80;;;;;;;3.38;96.88;99050.47;5085117;28;20020;-68
2022/02/01 10:51:14;;;;;;;5.18;2.92;;;;;;;3.24;97.42;99043.28;5085001;28;20028;-68
2022/02/01 10:53:41;;;;;;;14.70;3.13;;;;;;;3.30;97.70;99036.47;5084909;28;20017;-68
2022/02/01 10:56:10;;;;;;;11.70;3.85;;;;;;;3.37;98.21;99035.72;5084971;28;20323;-68
2022/02/01 10:58:36;;;;;;;10.75;2.92;;;;;;;3.47;97.72;99019.38;5085110;28;20016;-68
2022/02/01 11:01:04;;;;;;;14.80;3.35;;;;;;;3.42;98.15;99026.22;5084751;28;20023;-68
2022/02/01 11:03:31;;;;;;;12.25;3.53;;;;;;;3.42;97.58;99013.22;5084802;28;20024;-68
2022/02/01 11:05:58;;;;;;;12.35;3.10;;;;;;;3.34;98.03;99012.25;5084695;28;20048;-68
2022/02/01 11:08:27;;;;;;;9.75;2.47;;;;;;;3.39;98.11;99002.78;5084710;28;20089;-68
2022/02/01 11:10:57;;;;;;;12.23;2.72;;;;;;;3.29;98.43;99000.88;5084663;28;20025;-68
2022/02/01 11:13:34;;;;;;;17.08;3.88;;;;;;;3.34;98.50;98990.56;5084425;28;20071;-68
2022/02/01 11:16:05;;;;;;;10.30;2.83;;;;;;;3.39;98.41;98988.91;5084537;28;20027;-68
2022/02/01 11:18:31;;;;;;;13.25;2.47;;;;;;;3.39;97.72;98984.56;5084507;28;20047;-68
2022/02/01 11:21:03;;;;;;;4.75;2.40;;;;;;;3.28;98.12;98974.84;5084661;28;20070;-68
2022/02/01 11:23:47;;;;;;;8.47;2.00;;;;;;;3.39;98.41;98962.91;5084475;28;20024;-68
2022/02/01 11:26:50;;;;;;;5.65;2.08;;;;;;;3.31;98.01;98967.97;5084480;28;20215;-68
2022/02/01 11:32:03;;;;;;;20.38;2.30;;;;;;;3.27;98.88;98958.41;5084300;28;20399;-68
2022/02/01 11:34:34;;;;;;;5.70;1.98;;;;;;;3.29;98.74;98941.06;5084327;28;20028;-68
2022/02/01 11:37:04;;;;;;;12.95;2.83;;;;;;;3.25;99.37;98930.59;5084529;28;20339;-68
2022/02/01 11:39:31;;;;;;;8.93;2.35;;;;;;;3.32;99.38;98930.69;5084191;28;20051;-68
2022/02/01 11:41:57;;;;;;;12.75;2.63;;;;;;;3.42;99.61;98937.78;5084178;28;20236;-68
2022/02/01 11:44:34;;;;;;;5.15;2.30;;;;;;;3.40;99.41;98923.91;5084209;28;20091;-68
2022/02/01 11:47:00;;;;;;;14.43;3.42;;;;;;;3.31;99.75;98908.16;5084136;28;20035;-68
2022/02/01 11:49:25;;;;;;;6.43;2.20;;;;;;;3.30;99.46;98896.00;5083997;28;20099;-68
2022/02/01 11:51:52;;;;;;;8.35;3.03;;;;;;;3.49;100.00;98897.13;5084086;28;20024;-68
2022/02/01 11:54:24;;;;;;;2.88;2.05;;;;;;;3.52;99.72;98882.44;5083933;28;20107;-68
2022/02/01 11:56:49;;;;;;;;;;;;;;;3.55;99.90;98882.44;5084477;28;20360;-68
2022/02/01 11:59:26;;;;;;;11.15;2.20;;;;;;;3.63;100.00;98878.22;5084005;28;19911;-68
2022/02/01 12:02:06;;;;;;;13.65;3.10;;;;;;;3.74;100.00;98867.91;5083943;28;20114;-68
2022/02/01 12:04:41;;;;;;;7.32;2.10;;;;;;;3.68;99.81;98860.94;5083987;28;20024;-68
2022/02/01 12:07:08;;;;;;;9.65;2.95;;;;;;;3.54;100.00;98853.81;5084229;28;20031;-68
2022/02/01 12:09:33;;;;;;;5.50;2.28;;;;;;;3.69;99.97;98843.56;5083860;28;20051;-68
2022/02/01 12:12:02;;;;;;;4.35;2.22;;;;;;;3.75;100.00;98843.63;5083840;28;20316;-68
2022/02/01 12:14:29;;;;;;;10.57;2.20;;;;;;;3.72;99.87;98848.81;5083662;28;20048;-68
2022/02/01 12:16:56;;;;;;;9.30;2.13;;;;;;;3.71;100.00;98834.06;5083811;28;20378;-68
2022/02/01 12:19:41;;;;;;;9.20;2.20;;;;;;;3.74;100.00;98826.28;5083789;28;20043;-68
2022/02/01 12:22:27;;;;;;;8.18;2.20;;;;;;;3.68;99.30;98803.66;5083727;28;20269;-68
2022/02/01 12:25:04;;;;;;;5.30;2.15;;;;;;;3.76;99.29;98799.41;5083672;28;20271;-68
2022/02/01 12:27:40;;;;;;;4.05;1.50;;;;;;;3.82;99.74;98809.88;5084034;28;20200;-68
2022/02/01 12:30:08;;;;;;;5.78;1.92;;;;;;;3.72;99.65;98812.38;5083745;28;20016;-68
2022/02/01 12:32:34;;;;;;;6.20;2.55;;;;;;;3.61;99.23;98799.22;5083721;28;20021;-68
2022/02/01 12:35:00;;;;;;;1.58;1.17;;;;;;;3.74;100.00;98803.69;5083662;28;20446;-68
2022/02/01 12:37:27;;;;;;;6.35;1.88;;;;;;;3.60;100.00;98792.28;5083654;28;20020;-68
2022/02/01 12:40:11;;;;;;;5.88;2.30;;;;;;;3.51;100.00;98781.78;5083536;28;20251;-68
2022/02/01 12:42:53;;;;;;;5.03;1.55;;;;;;;3.50;100.00;98767.03;5083626;28;20051;-68
2022/02/01 12:48:05;;;;;;;6.32;1.77;;;;;;;3.50;100.00;98759.22;5083542;28;20027;-68
2022/02/01 12:50:31;;;;;;;7.72;1.45;;;;;;;3.55;100.00;98757.53;5083494;28;20025;-68
2022/02/01 12:52:59;;;;;;;3.78;1.40;;;;;;;3.58;100.00;98759.31;5083751;28;20365;-68
2022/02/01 12:55:28;;;;;;;6.70;2.00;;;;;;;3.53;99.44;98759.25;5083467;28;20078;-68
2022/02/01 12:57:55;;;;;;;6.32;1.50;;;;;;;3.47;99.94;98759.19;5083397;28;20056;-68
2022/02/01 13:00:24;;;;;;;2.25;1.45;;;;;;;3.41;100.00;98750.44;5083280;28;20031;-68
2022/02/01 13:03:00;;;;;;;4.00;1.17;;;;;;;3.47;100.00;98754.00;5083626;28;20320;-68
2022/02/01 13:05:25;;;;;;;7.13;2.08;;;;;;;3.45;100.00;98744.44;5083373;28;20035;-68
2022/02/01 13:21:11;;;;;;;2.03;1.13;;;;;;;3.63;100.00;98683.03;5086724;28;20073;-68
2022/02/01 13:23:43;;;;;;;1.95;1.08;;;;;;;3.75;100.00;98672.72;5086719;28;20138;-68
2022/02/01 13:26:19;;;;;;;1.43;1.03;;;;;;;3.66;100.00;98684.75;5086974;28;20062;-68
2022/02/01 13:29:00;;;;;;;3.35;0.90;;;;;;;3.77;100.00;98698.75;5086652;28;20027;-68
2022/02/01 13:31:29;;;;;;;2.20;1.35;;;;;;;3.72;100.00;98701.31;5086650;28;20343;-68
2022/02/01 13:33:58;;;;;;;3.17;1.15;;;;;;;3.73;100.00;98703.06;5086844;28;20024;-68
2022/02/01 13:36:24;;;;;;;5.25;2.08;;;;;;;3.75;100.00;98698.75;5086516;28;20028;-68